sensor_id;sensor_type;location;lat;lon;timestamp;P1;durP1;ratioP1;P2;durP2;ratioP2
72493;SDS011;60520;49.182;-0.348;2024-02-04T00:02:10;2.92;;;0.90;;
72493;SDS011;60520;49.182;-0.348;2024-02-04T00:04:39;1.98;;;0.98;;
72493;SDS011;60520;49.182;-0.348;2024-02-04T00:07:07;3.00;;;0.90;;
72493;SDS011;60520;49.182;-0.348;2024-02-04T00:09:34;2.92;;;1.00;;
72493;SDS011;60520;49.182;-0.348;2024-02-04T00:12:02;6.93;;;1.20;;
72493;SDS011;60520;49.182;-0.348;2024-02-04T00:14:30;4.65;;;1.08;;
72493;SDS011;60520;49.182;-0.348;2024-02-04T00:16:57;3.30;;;1.23;;
72493;SDS011;60520;49.182;-0.348;2024-02-04T00:19:25;4.60;;;1.10;;
72493;SDS011;60520;49.182;-0.348;2024-02-04T00:21:52;2.40;;;0.93;;
72493;SDS011;60520;49.182;-0.348;2024-02-04T00:24:20;1.58;;;0.80;;
72493;SDS011;60520;49.182;-0.348;2024-02-04T00:26:47;1.95;;;0.82;;
72493;SDS011;60520;49.182;-0.348;2024-02-04T00:29:15;2.97;;;1.15;;
72493;SDS011;60520;49.182;-0.348;2024-02-04T00:31:42;4.80;;;1.08;;
72493;SDS011;60520;49.182;-0.348;2024-02-04T00:34:09;6.03;;;0.93;;
72493;SDS011;60520;49.182;-0.348;2024-02-04T00:36:36;2.88;;;1.02;;
72493;SDS011;60520;49.182;-0.348;2024-02-04T00:39:03;3.45;;;1.10;;
72493;SDS011;60520;49.182;-0.348;2024-02-04T00:41:33;2.08;;;1.00;;
72493;SDS011;60520;49.182;-0.348;2024-02-04T00:44:01;3.83;;;1.20;;
72493;SDS011;60520;49.182;-0.348;2024-02-04T00:46:28;2.17;;;0.85;;
72493;SDS011;60520;49.182;-0.348;2024-02-04T00:48:55;5.15;;;1.15;;
72493;SDS011;60520;49.182;-0.348;2024-02-04T00:51:22;2.42;;;0.90;;
72493;SDS011;60520;49.182;-0.348;2024-02-04T00:53:49;3.25;;;1.02;;
72493;SDS011;60520;49.182;-0.348;2024-02-04T00:56:18;2.63;;;1.00;;
72493;SDS011;60520;49.182;-0.348;2024-02-04T00:58:46;3.38;;;1.13;;
72493;SDS011;60520;49.182;-0.348;2024-02-04T01:01:13;2.47;;;0.82;;
72493;SDS011;60520;49.182;-0.348;2024-02-04T01:03:40;1.48;;;0.80;;
72493;SDS011;60520;49.182;-0.348;2024-02-04T01:06:07;2.53;;;0.90;;
72493;SDS011;60520;49.182;-0.348;2024-02-04T01:08:35;2.40;;;1.02;;
72493;SDS011;60520;49.182;-0.348;2024-02-04T01:11:02;2.47;;;1.00;;
72493;SDS011;60520;49.182;-0.348;2024-02-04T01:13:30;3.65;;;1.33;;
72493;SDS011;60520;49.182;-0.348;2024-02-04T01:15:58;3.55;;;1.00;;
72493;SDS011;60520;49.182;-0.348;2024-02-04T01:18:25;3.55;;;1.08;;
72493;SDS011;60520;49.182;-0.348;2024-02-04T01:20:53;1.80;;;0.80;;
72493;SDS011;60520;49.182;-0.348;2024-02-04T01:23:20;4.22;;;0.98;;
72493;SDS011;60520;49.182;-0.348;2024-02-04T01:25:47;3.88;;;1.02;;
72493;SDS011;60520;49.182;-0.348;2024-02-04T01:28:14;3.50;;;1.23;;
72493;SDS011;60520;49.182;-0.348;2024-02-04T01:30:41;2.45;;;0.90;;
72493;SDS011;60520;49.182;-0.348;2024-02-04T01:33:10;2.63;;;0.90;;
72493;SDS011;60520;49.182;-0.348;2024-02-04T01:35:37;3.75;;;0.82;;
72493;SDS011;60520;49.182;-0.348;2024-02-04T01:38:04;2.75;;;1.00;;
72493;SDS011;60520;49.182;-0.348;2024-02-04T01:40:31;4.80;;;1.00;;
72493;SDS011;60520;49.182;-0.348;2024-02-04T01:42:58;1.83;;;0.88;;
72493;SDS011;60520;49.182;-0.348;2024-02-04T01:45:25;3.25;;;1.08;;
72493;SDS011;60520;49.182;-0.348;2024-02-04T01:47:53;2.80;;;1.00;;
72493;SDS011;60520;49.182;-0.348;2024-02-04T01:50:22;5.40;;;1.48;;
72493;SDS011;60520;49.182;-0.348;2024-02-04T01:52:49;4.97;;;1.10;;
72493;SDS011;60520;49.182;-0.348;2024-02-04T01:55:17;1.85;;;1.02;;
72493;SDS011;60520;49.182;-0.348;2024-02-04T01:57:44;3.33;;;0.73;;
72493;SDS011;60520;49.182;-0.348;2024-02-04T02:00:12;3.03;;;1.08;;
72493;SDS011;60520;49.182;-0.348;2024-02-04T02:02:39;2.47;;;0.90;;
72493;SDS011;60520;49.182;-0.348;2024-02-04T02:05:07;1.42;;;0.82;;
72493;SDS011;60520;49.182;-0.348;2024-02-04T02:07:35;3.70;;;1.00;;
72493;SDS011;60520;49.182;-0.348;2024-02-04T02:10:03;2.83;;;0.88;;
72493;SDS011;60520;49.182;-0.348;2024-02-04T02:12:33;2.97;;;0.80;;
72493;SDS011;60520;49.182;-0.348;2024-02-04T02:15:05;3.22;;;1.10;;
72493;SDS011;60520;49.182;-0.348;2024-02-04T02:17:36;2.22;;;0.90;;
72493;SDS011;60520;49.182;-0.348;2024-02-04T02:20:06;3.08;;;0.90;;
72493;SDS011;60520;49.182;-0.348;2024-02-04T02:22:39;1.73;;;0.80;;
72493;SDS011;60520;49.182;-0.348;2024-02-04T02:25:14;3.17;;;0.80;;
72493;SDS011;60520;49.182;-0.348;2024-02-04T02:27:47;3.45;;;0.90;;
72493;SDS011;60520;49.182;-0.348;2024-02-04T02:30:14;1.48;;;0.70;;
72493;SDS011;60520;49.182;-0.348;2024-02-04T02:32:42;3.83;;;1.25;;
72493;SDS011;60520;49.182;-0.348;2024-02-04T02:35:09;3.03;;;1.08;;
72493;SDS011;60520;49.182;-0.348;2024-02-04T02:37:39;2.78;;;0.70;;
72493;SDS011;60520;49.182;-0.348;2024-02-04T02:40:08;3.28;;;0.85;;
72493;SDS011;60520;49.182;-0.348;2024-02-04T02:42:38;3.30;;;0.90;;
72493;SDS011;60520;49.182;-0.348;2024-02-04T02:45:05;2.30;;;0.80;;
72493;SDS011;60520;49.182;-0.348;2024-02-04T02:47:33;1.98;;;0.88;;
72493;SDS011;60520;49.182;-0.348;2024-02-04T02:50:00;1.92;;;0.80;;
72493;SDS011;60520;49.182;-0.348;2024-02-04T02:52:27;3.97;;;0.98;;
72493;SDS011;60520;49.182;-0.348;2024-02-04T02:54:54;1.02;;;0.55;;
72493;SDS011;60520;49.182;-0.348;2024-02-04T02:57:22;2.05;;;0.85;;
72493;SDS011;60520;49.182;-0.348;2024-02-04T02:59:50;2.03;;;0.80;;
72493;SDS011;60520;49.182;-0.348;2024-02-04T03:02:17;2.78;;;0.80;;
72493;SDS011;60520;49.182;-0.348;2024-02-04T03:04:44;3.15;;;0.90;;
72493;SDS011;60520;49.182;-0.348;2024-02-04T03:07:11;2.88;;;1.00;;
72493;SDS011;60520;49.182;-0.348;2024-02-04T03:09:39;1.98;;;1.02;;
72493;SDS011;60520;49.182;-0.348;2024-02-04T03:12:06;2.13;;;0.75;;
72493;SDS011;60520;49.182;-0.348;2024-02-04T03:14:33;1.83;;;0.80;;
72493;SDS011;60520;49.182;-0.348;2024-02-04T03:17:02;2.03;;;1.05;;
72493;SDS011;60520;49.182;-0.348;2024-02-04T03:19:29;2.78;;;0.80;;
72493;SDS011;60520;49.182;-0.348;2024-02-04T03:21:56;2.05;;;0.70;;
72493;SDS011;60520;49.182;-0.348;2024-02-04T03:24:23;2.53;;;0.82;;
72493;SDS011;60520;49.182;-0.348;2024-02-04T03:26:50;2.88;;;0.93;;
72493;SDS011;60520;49.182;-0.348;2024-02-04T03:29:17;1.55;;;0.80;;
72493;SDS011;60520;49.182;-0.348;2024-02-04T03:31:44;2.35;;;0.90;;
72493;SDS011;60520;49.182;-0.348;2024-02-04T03:34:13;1.98;;;0.98;;
72493;SDS011;60520;49.182;-0.348;2024-02-04T03:36:40;2.53;;;0.88;;
72493;SDS011;60520;49.182;-0.348;2024-02-04T03:39:07;1.95;;;0.88;;
72493;SDS011;60520;49.182;-0.348;2024-02-04T03:41:34;1.90;;;1.00;;
72493;SDS011;60520;49.182;-0.348;2024-02-04T03:44:01;3.35;;;0.80;;
72493;SDS011;60520;49.182;-0.348;2024-02-04T03:46:28;2.45;;;0.88;;
72493;SDS011;60520;49.182;-0.348;2024-02-04T03:48:56;3.50;;;1.13;;
72493;SDS011;60520;49.182;-0.348;2024-02-04T03:51:24;3.35;;;0.85;;
72493;SDS011;60520;49.182;-0.348;2024-02-04T03:53:51;2.13;;;0.90;;
72493;SDS011;60520;49.182;-0.348;2024-02-04T03:56:19;3.05;;;0.98;;
72493;SDS011;60520;49.182;-0.348;2024-02-04T03:58:46;1.73;;;0.70;;
72493;SDS011;60520;49.182;-0.348;2024-02-04T04:01:13;2.28;;;0.90;;
72493;SDS011;60520;49.182;-0.348;2024-02-04T04:03:40;2.15;;;0.80;;
72493;SDS011;60520;49.182;-0.348;2024-02-04T04:06:08;2.03;;;0.77;;
72493;SDS011;60520;49.182;-0.348;2024-02-04T04:08:36;1.58;;;0.65;;
72493;SDS011;60520;49.182;-0.348;2024-02-04T04:11:04;3.65;;;0.98;;
72493;SDS011;60520;49.182;-0.348;2024-02-04T04:13:31;2.17;;;0.70;;
72493;SDS011;60520;49.182;-0.348;2024-02-04T04:15:59;1.23;;;0.70;;
72493;SDS011;60520;49.182;-0.348;2024-02-04T04:18:26;1.58;;;0.65;;
72493;SDS011;60520;49.182;-0.348;2024-02-04T04:20:54;1.90;;;0.70;;
72493;SDS011;60520;49.182;-0.348;2024-02-04T04:23:21;0.93;;;0.60;;
72493;SDS011;60520;49.182;-0.348;2024-02-04T04:25:49;1.50;;;0.60;;
72493;SDS011;60520;49.182;-0.348;2024-02-04T04:28:16;3.10;;;0.80;;
72493;SDS011;60520;49.182;-0.348;2024-02-04T04:30:44;2.42;;;0.80;;
72493;SDS011;60520;49.182;-0.348;2024-02-04T04:33:11;1.58;;;0.60;;
72493;SDS011;60520;49.182;-0.348;2024-02-04T04:35:38;3.08;;;0.80;;
72493;SDS011;60520;49.182;-0.348;2024-02-04T04:38:05;1.25;;;0.70;;
72493;SDS011;60520;49.182;-0.348;2024-02-04T04:40:32;1.75;;;0.80;;
72493;SDS011;60520;49.182;-0.348;2024-02-04T04:43:01;1.85;;;0.60;;
72493;SDS011;60520;49.182;-0.348;2024-02-04T04:45:28;1.15;;;0.50;;
72493;SDS011;60520;49.182;-0.348;2024-02-04T04:47:55;1.90;;;0.70;;
72493;SDS011;60520;49.182;-0.348;2024-02-04T04:50:22;1.55;;;0.68;;
72493;SDS011;60520;49.182;-0.348;2024-02-04T04:52:50;2.17;;;0.85;;
72493;SDS011;60520;49.182;-0.348;2024-02-04T04:55:17;1.45;;;0.60;;
72493;SDS011;60520;49.182;-0.348;2024-02-04T04:57:44;1.48;;;0.50;;
72493;SDS011;60520;49.182;-0.348;2024-02-04T05:00:13;1.70;;;0.80;;
72493;SDS011;60520;49.182;-0.348;2024-02-04T05:02:41;2.90;;;1.02;;
72493;SDS011;60520;49.182;-0.348;2024-02-04T05:05:10;1.52;;;0.50;;
72493;SDS011;60520;49.182;-0.348;2024-02-04T05:07:37;1.17;;;0.70;;
72493;SDS011;60520;49.182;-0.348;2024-02-04T05:10:04;1.15;;;0.63;;
72493;SDS011;60520;49.182;-0.348;2024-02-04T05:12:32;1.65;;;0.57;;
72493;SDS011;60520;49.182;-0.348;2024-02-04T05:14:59;1.33;;;0.68;;
72493;SDS011;60520;49.182;-0.348;2024-02-04T05:17:28;1.75;;;0.60;;
72493;SDS011;60520;49.182;-0.348;2024-02-04T05:19:55;1.23;;;0.70;;
72493;SDS011;60520;49.182;-0.348;2024-02-04T05:22:22;1.30;;;0.80;;
72493;SDS011;60520;49.182;-0.348;2024-02-04T05:24:49;2.10;;;0.90;;
72493;SDS011;60520;49.182;-0.348;2024-02-04T05:27:16;3.85;;;0.88;;
72493;SDS011;60520;49.182;-0.348;2024-02-04T05:29:43;1.00;;;0.60;;
72493;SDS011;60520;49.182;-0.348;2024-02-04T05:32:11;1.00;;;0.60;;
72493;SDS011;60520;49.182;-0.348;2024-02-04T05:34:39;1.33;;;0.65;;
72493;SDS011;60520;49.182;-0.348;2024-02-04T05:37:06;1.45;;;0.60;;
72493;SDS011;60520;49.182;-0.348;2024-02-04T05:39:33;3.20;;;0.80;;
72493;SDS011;60520;49.182;-0.348;2024-02-04T05:42:00;2.28;;;0.63;;
72493;SDS011;60520;49.182;-0.348;2024-02-04T05:44:28;0.93;;;0.45;;
72493;SDS011;60520;49.182;-0.348;2024-02-04T05:46:55;1.98;;;0.77;;
72493;SDS011;60520;49.182;-0.348;2024-02-04T05:49:22;1.52;;;0.50;;
72493;SDS011;60520;49.182;-0.348;2024-02-04T05:51:50;1.52;;;0.52;;
72493;SDS011;60520;49.182;-0.348;2024-02-04T05:54:18;2.10;;;0.60;;
72493;SDS011;60520;49.182;-0.348;2024-02-04T05:56:45;1.52;;;0.63;;
72493;SDS011;60520;49.182;-0.348;2024-02-04T05:59:12;1.50;;;0.65;;
72493;SDS011;60520;49.182;-0.348;2024-02-04T06:01:40;0.90;;;0.50;;
72493;SDS011;60520;49.182;-0.348;2024-02-04T06:04:08;1.75;;;0.73;;
72493;SDS011;60520;49.182;-0.348;2024-02-04T06:06:35;1.60;;;0.73;;
72493;SDS011;60520;49.182;-0.348;2024-02-04T06:09:03;1.50;;;0.50;;
72493;SDS011;60520;49.182;-0.348;2024-02-04T06:11:31;2.25;;;0.60;;
72493;SDS011;60520;49.182;-0.348;2024-02-04T06:13:58;1.50;;;0.60;;
72493;SDS011;60520;49.182;-0.348;2024-02-04T06:16:25;2.70;;;0.50;;
72493;SDS011;60520;49.182;-0.348;2024-02-04T06:18:52;1.60;;;0.50;;
72493;SDS011;60520;49.182;-0.348;2024-02-04T06:21:20;1.77;;;0.70;;
72493;SDS011;60520;49.182;-0.348;2024-02-04T06:23:47;2.70;;;0.70;;
72493;SDS011;60520;49.182;-0.348;2024-02-04T06:26:16;1.52;;;0.68;;
72493;SDS011;60520;49.182;-0.348;2024-02-04T06:28:43;0.77;;;0.40;;
72493;SDS011;60520;49.182;-0.348;2024-02-04T06:31:11;0.73;;;0.47;;
72493;SDS011;60520;49.182;-0.348;2024-02-04T06:33:38;1.55;;;0.60;;
72493;SDS011;60520;49.182;-0.348;2024-02-04T06:36:08;1.58;;;0.50;;
72493;SDS011;60520;49.182;-0.348;2024-02-04T06:38:35;1.60;;;0.50;;
72493;SDS011;60520;49.182;-0.348;2024-02-04T06:41:02;1.42;;;0.57;;
72493;SDS011;60520;49.182;-0.348;2024-02-04T06:43:31;2.70;;;0.47;;
72493;SDS011;60520;49.182;-0.348;2024-02-04T06:45:58;1.23;;;0.60;;
72493;SDS011;60520;49.182;-0.348;2024-02-04T06:48:25;1.02;;;0.40;;
72493;SDS011;60520;49.182;-0.348;2024-02-04T06:50:53;1.63;;;0.70;;
72493;SDS011;60520;49.182;-0.348;2024-02-04T06:53:20;1.23;;;0.50;;
72493;SDS011;60520;49.182;-0.348;2024-02-04T06:55:47;1.55;;;0.52;;
72493;SDS011;60520;49.182;-0.348;2024-02-04T06:58:14;1.10;;;0.40;;
72493;SDS011;60520;49.182;-0.348;2024-02-04T07:00:42;1.60;;;0.60;;
72493;SDS011;60520;49.182;-0.348;2024-02-04T07:03:10;1.00;;;0.50;;
72493;SDS011;60520;49.182;-0.348;2024-02-04T07:05:37;0.80;;;0.50;;
72493;SDS011;60520;49.182;-0.348;2024-02-04T07:08:04;0.90;;;0.60;;
72493;SDS011;60520;49.182;-0.348;2024-02-04T07:10:32;1.50;;;0.55;;
72493;SDS011;60520;49.182;-0.348;2024-02-04T07:12:59;1.40;;;0.50;;
72493;SDS011;60520;49.182;-0.348;2024-02-04T07:15:26;2.05;;;0.60;;
72493;SDS011;60520;49.182;-0.348;2024-02-04T07:17:55;0.88;;;0.50;;
72493;SDS011;60520;49.182;-0.348;2024-02-04T07:20:22;1.27;;;0.60;;
72493;SDS011;60520;49.182;-0.348;2024-02-04T07:22:49;1.25;;;0.52;;
72493;SDS011;60520;49.182;-0.348;2024-02-04T07:25:16;2.95;;;0.60;;
72493;SDS011;60520;49.182;-0.348;2024-02-04T07:27:43;1.00;;;0.40;;
72493;SDS011;60520;49.182;-0.348;2024-02-04T07:30:11;1.00;;;0.50;;
72493;SDS011;60520;49.182;-0.348;2024-02-04T07:32:38;1.83;;;0.60;;
72493;SDS011;60520;49.182;-0.348;2024-02-04T07:35:07;1.08;;;0.65;;
72493;SDS011;60520;49.182;-0.348;2024-02-04T07:37:34;1.77;;;0.70;;
72493;SDS011;60520;49.182;-0.348;2024-02-04T07:40:01;1.30;;;0.45;;
72493;SDS011;60520;49.182;-0.348;2024-02-04T07:42:30;1.65;;;0.65;;
72493;SDS011;60520;49.182;-0.348;2024-02-04T07:44:57;0.90;;;0.50;;
72493;SDS011;60520;49.182;-0.348;2024-02-04T07:47:24;1.67;;;0.50;;
72493;SDS011;60520;49.182;-0.348;2024-02-04T07:49:51;2.03;;;0.50;;
72493;SDS011;60520;49.182;-0.348;2024-02-04T07:52:20;1.05;;;0.57;;
72493;SDS011;60520;49.182;-0.348;2024-02-04T07:54:47;1.77;;;0.52;;
72493;SDS011;60520;49.182;-0.348;2024-02-04T07:57:14;1.00;;;0.50;;
72493;SDS011;60520;49.182;-0.348;2024-02-04T07:59:41;0.68;;;0.40;;
72493;SDS011;60520;49.182;-0.348;2024-02-04T08:02:08;2.03;;;0.65;;
72493;SDS011;60520;49.182;-0.348;2024-02-04T08:04:35;1.50;;;0.50;;
72493;SDS011;60520;49.182;-0.348;2024-02-04T08:07:03;0.90;;;0.55;;
72493;SDS011;60520;49.182;-0.348;2024-02-04T08:09:31;1.48;;;0.63;;
72493;SDS011;60520;49.182;-0.348;2024-02-04T08:11:58;1.85;;;0.50;;
72493;SDS011;60520;49.182;-0.348;2024-02-04T08:14:25;2.25;;;0.40;;
72493;SDS011;60520;49.182;-0.348;2024-02-04T08:16:53;1.00;;;0.40;;
72493;SDS011;60520;49.182;-0.348;2024-02-04T08:19:20;1.73;;;0.63;;
72493;SDS011;60520;49.182;-0.348;2024-02-04T08:21:47;1.45;;;0.40;;
72493;SDS011;60520;49.182;-0.348;2024-02-04T08:24:14;1.98;;;0.43;;
72493;SDS011;60520;49.182;-0.348;2024-02-04T08:26:43;1.23;;;0.47;;
72493;SDS011;60520;49.182;-0.348;2024-02-04T08:29:10;2.10;;;0.50;;
72493;SDS011;60520;49.182;-0.348;2024-02-04T08:31:37;2.28;;;0.60;;
72493;SDS011;60520;49.182;-0.348;2024-02-04T08:34:04;1.50;;;0.60;;
72493;SDS011;60520;49.182;-0.348;2024-02-04T08:36:32;1.30;;;0.47;;
72493;SDS011;60520;49.182;-0.348;2024-02-04T08:38:59;2.55;;;0.70;;
72493;SDS011;60520;49.182;-0.348;2024-02-04T08:41:26;2.58;;;0.50;;
72493;SDS011;60520;49.182;-0.348;2024-02-04T08:43:54;1.85;;;0.70;;
72493;SDS011;60520;49.182;-0.348;2024-02-04T08:46:22;1.67;;;0.70;;
72493;SDS011;60520;49.182;-0.348;2024-02-04T08:48:49;2.65;;;0.50;;
72493;SDS011;60520;49.182;-0.348;2024-02-04T08:51:16;2.05;;;0.63;;
72493;SDS011;60520;49.182;-0.348;2024-02-04T08:53:44;1.42;;;0.60;;
72493;SDS011;60520;49.182;-0.348;2024-02-04T08:56:11;2.03;;;0.38;;
72493;SDS011;60520;49.182;-0.348;2024-02-04T08:58:38;1.92;;;0.70;;
72493;SDS011;60520;49.182;-0.348;2024-02-04T09:01:07;1.63;;;0.52;;
72493;SDS011;60520;49.182;-0.348;2024-02-04T09:03:34;0.68;;;0.40;;
72493;SDS011;60520;49.182;-0.348;2024-02-04T09:06:01;1.05;;;0.50;;
72493;SDS011;60520;49.182;-0.348;2024-02-04T09:08:29;3.42;;;0.68;;
72493;SDS011;60520;49.182;-0.348;2024-02-04T09:10:56;2.50;;;0.65;;
72493;SDS011;60520;49.182;-0.348;2024-02-04T09:13:24;0.65;;;0.32;;
72493;SDS011;60520;49.182;-0.348;2024-02-04T09:15:51;1.92;;;0.70;;
72493;SDS011;60520;49.182;-0.348;2024-02-04T09:18:20;1.83;;;0.47;;
72493;SDS011;60520;49.182;-0.348;2024-02-04T09:20:47;1.45;;;0.60;;
72493;SDS011;60520;49.182;-0.348;2024-02-04T09:23:14;1.13;;;0.52;;
72493;SDS011;60520;49.182;-0.348;2024-02-04T09:25:41;1.17;;;0.52;;
72493;SDS011;60520;49.182;-0.348;2024-02-04T09:28:09;1.52;;;0.50;;
72493;SDS011;60520;49.182;-0.348;2024-02-04T09:30:36;2.38;;;0.70;;
72493;SDS011;60520;49.182;-0.348;2024-02-04T09:33:03;2.83;;;0.60;;
72493;SDS011;60520;49.182;-0.348;2024-02-04T09:35:32;2.72;;;0.70;;
72493;SDS011;60520;49.182;-0.348;2024-02-04T09:38:00;3.05;;;0.60;;
72493;SDS011;60520;49.182;-0.348;2024-02-04T09:40:27;0.95;;;0.45;;
72493;SDS011;60520;49.182;-0.348;2024-02-04T09:42:54;2.85;;;0.50;;
72493;SDS011;60520;49.182;-0.348;2024-02-04T09:45:22;2.65;;;0.50;;
72493;SDS011;60520;49.182;-0.348;2024-02-04T09:47:49;1.48;;;0.50;;
72493;SDS011;60520;49.182;-0.348;2024-02-04T09:50:17;1.67;;;0.57;;
72493;SDS011;60520;49.182;-0.348;2024-02-04T09:52:47;1.40;;;0.57;;
72493;SDS011;60520;49.182;-0.348;2024-02-04T09:55:15;1.33;;;0.50;;
72493;SDS011;60520;49.182;-0.348;2024-02-04T09:57:43;1.75;;;0.60;;
72493;SDS011;60520;49.182;-0.348;2024-02-04T10:00:11;0.95;;;0.40;;
72493;SDS011;60520;49.182;-0.348;2024-02-04T10:02:38;2.97;;;0.60;;
72493;SDS011;60520;49.182;-0.348;2024-02-04T10:05:05;1.55;;;0.60;;
72493;SDS011;60520;49.182;-0.348;2024-02-04T10:07:34;1.83;;;0.40;;
72493;SDS011;60520;49.182;-0.348;2024-02-04T10:10:02;1.50;;;0.52;;
72493;SDS011;60520;49.182;-0.348;2024-02-04T10:12:30;3.60;;;0.77;;
72493;SDS011;60520;49.182;-0.348;2024-02-04T10:14:58;1.38;;;0.50;;
72493;SDS011;60520;49.182;-0.348;2024-02-04T10:17:25;1.35;;;0.60;;
72493;SDS011;60520;49.182;-0.348;2024-02-04T10:19:53;2.45;;;0.63;;
72493;SDS011;60520;49.182;-0.348;2024-02-04T10:22:20;2.85;;;0.77;;
72493;SDS011;60520;49.182;-0.348;2024-02-04T10:24:47;0.90;;;0.40;;
72493;SDS011;60520;49.182;-0.348;2024-02-04T10:27:16;1.25;;;0.35;;
72493;SDS011;60520;49.182;-0.348;2024-02-04T10:29:43;1.42;;;0.57;;
72493;SDS011;60520;49.182;-0.348;2024-02-04T10:32:10;0.73;;;0.50;;
72493;SDS011;60520;49.182;-0.348;2024-02-04T10:34:38;0.82;;;0.50;;
72493;SDS011;60520;49.182;-0.348;2024-02-04T10:37:05;1.38;;;0.43;;
72493;SDS011;60520;49.182;-0.348;2024-02-04T10:39:32;1.75;;;0.43;;
72493;SDS011;60520;49.182;-0.348;2024-02-04T10:42:01;0.80;;;0.50;;
72493;SDS011;60520;49.182;-0.348;2024-02-04T10:44:31;2.33;;;0.47;;
72493;SDS011;60520;49.182;-0.348;2024-02-04T10:47:03;1.05;;;0.55;;
72493;SDS011;60520;49.182;-0.348;2024-02-04T10:49:32;1.58;;;0.70;;
72493;SDS011;60520;49.182;-0.348;2024-02-04T10:52:02;1.83;;;0.50;;
72493;SDS011;60520;49.182;-0.348;2024-02-04T10:54:31;1.75;;;0.40;;
72493;SDS011;60520;49.182;-0.348;2024-02-04T10:57:01;1.23;;;0.45;;
72493;SDS011;60520;49.182;-0.348;2024-02-04T10:59:31;0.98;;;0.40;;
72493;SDS011;60520;49.182;-0.348;2024-02-04T11:01:58;1.48;;;0.40;;
72493;SDS011;60520;49.182;-0.348;2024-02-04T11:04:25;0.93;;;0.47;;
72493;SDS011;60520;49.182;-0.348;2024-02-04T11:06:54;2.20;;;0.55;;
72493;SDS011;60520;49.182;-0.348;2024-02-04T11:09:22;1.60;;;0.50;;
72493;SDS011;60520;49.182;-0.348;2024-02-04T11:11:49;1.33;;;0.50;;
72493;SDS011;60520;49.182;-0.348;2024-02-04T11:14:18;2.25;;;0.60;;
72493;SDS011;60520;49.182;-0.348;2024-02-04T11:16:55;3.13;;;0.60;;
72493;SDS011;60520;49.182;-0.348;2024-02-04T11:19:29;1.67;;;0.50;;
72493;SDS011;60520;49.182;-0.348;2024-02-04T11:22:10;1.25;;;0.40;;
72493;SDS011;60520;49.182;-0.348;2024-02-04T11:24:53;1.80;;;0.60;;
72493;SDS011;60520;49.182;-0.348;2024-02-04T11:27:22;0.80;;;0.45;;
72493;SDS011;60520;49.182;-0.348;2024-02-04T11:29:51;1.10;;;0.40;;
72493;SDS011;60520;49.182;-0.348;2024-02-04T11:32:19;1.85;;;0.50;;
72493;SDS011;60520;49.182;-0.348;2024-02-04T11:34:47;1.35;;;0.60;;
72493;SDS011;60520;49.182;-0.348;2024-02-04T11:37:17;2.83;;;0.57;;
72493;SDS011;60520;49.182;-0.348;2024-02-04T11:39:48;2.92;;;0.55;;
72493;SDS011;60520;49.182;-0.348;2024-02-04T11:42:15;1.17;;;0.63;;
72493;SDS011;60520;49.182;-0.348;2024-02-04T11:44:43;2.72;;;0.57;;
72493;SDS011;60520;49.182;-0.348;2024-02-04T11:47:10;1.40;;;0.68;;
72493;SDS011;60520;49.182;-0.348;2024-02-04T11:49:39;1.95;;;0.50;;
72493;SDS011;60520;49.182;-0.348;2024-02-04T11:52:06;0.82;;;0.50;;
72493;SDS011;60520;49.182;-0.348;2024-02-04T11:54:33;1.38;;;0.52;;
72493;SDS011;60520;49.182;-0.348;2024-02-04T11:57:01;1.45;;;0.50;;
72493;SDS011;60520;49.182;-0.348;2024-02-04T11:59:29;2.05;;;0.55;;
72493;SDS011;60520;49.182;-0.348;2024-02-04T12:01:57;1.00;;;0.52;;
72493;SDS011;60520;49.182;-0.348;2024-02-04T12:04:27;1.40;;;0.50;;
72493;SDS011;60520;49.182;-0.348;2024-02-04T12:06:56;1.33;;;0.30;;
72493;SDS011;60520;49.182;-0.348;2024-02-04T12:09:23;2.75;;;0.57;;
72493;SDS011;60520;49.182;-0.348;2024-02-04T12:11:50;1.38;;;0.52;;
72493;SDS011;60520;49.182;-0.348;2024-02-04T12:14:18;0.93;;;0.50;;
72493;SDS011;60520;49.182;-0.348;2024-02-04T12:16:45;2.05;;;0.52;;
72493;SDS011;60520;49.182;-0.348;2024-02-04T12:19:12;0.93;;;0.32;;
72493;SDS011;60520;49.182;-0.348;2024-02-04T12:21:39;1.13;;;0.35;;
72493;SDS011;60520;49.182;-0.348;2024-02-04T12:24:08;1.52;;;0.70;;
72493;SDS011;60520;49.182;-0.348;2024-02-04T12:26:35;2.13;;;0.50;;
72493;SDS011;60520;49.182;-0.348;2024-02-04T12:29:02;1.75;;;0.57;;
72493;SDS011;60520;49.182;-0.348;2024-02-04T12:31:30;1.50;;;0.50;;
72493;SDS011;60520;49.182;-0.348;2024-02-04T12:33:58;2.58;;;0.65;;
72493;SDS011;60520;49.182;-0.348;2024-02-04T12:36:26;0.80;;;0.40;;
72493;SDS011;60520;49.182;-0.348;2024-02-04T12:38:53;1.13;;;0.60;;
72493;SDS011;60520;49.182;-0.348;2024-02-04T12:41:22;1.25;;;0.40;;
72493;SDS011;60520;49.182;-0.348;2024-02-04T12:43:50;1.65;;;0.68;;
72493;SDS011;60520;49.182;-0.348;2024-02-04T12:46:17;2.20;;;0.65;;
72493;SDS011;60520;49.182;-0.348;2024-02-04T12:48:45;2.78;;;0.68;;
72493;SDS011;60520;49.182;-0.348;2024-02-04T12:51:12;1.50;;;0.60;;
72493;SDS011;60520;49.182;-0.348;2024-02-04T12:53:49;1.33;;;0.70;;
72493;SDS011;60520;49.182;-0.348;2024-02-04T12:56:16;1.88;;;0.57;;
72493;SDS011;60520;49.182;-0.348;2024-02-04T12:58:45;1.40;;;0.60;;
72493;SDS011;60520;49.182;-0.348;2024-02-04T13:01:12;1.77;;;0.50;;
72493;SDS011;60520;49.182;-0.348;2024-02-04T13:03:39;2.33;;;0.70;;
72493;SDS011;60520;49.182;-0.348;2024-02-04T13:06:08;1.35;;;0.50;;
72493;SDS011;60520;49.182;-0.348;2024-02-04T13:08:35;1.13;;;0.52;;
72493;SDS011;60520;49.182;-0.348;2024-02-04T13:11:02;1.25;;;0.60;;
72493;SDS011;60520;49.182;-0.348;2024-02-04T13:13:29;2.08;;;0.60;;
72493;SDS011;60520;49.182;-0.348;2024-02-04T13:15:58;1.23;;;0.47;;
72493;SDS011;60520;49.182;-0.348;2024-02-04T13:18:25;3.92;;;0.75;;
72493;SDS011;60520;49.182;-0.348;2024-02-04T13:20:52;2.17;;;0.82;;
72493;SDS011;60520;49.182;-0.348;2024-02-04T13:23:19;2.70;;;0.60;;
72493;SDS011;60520;49.182;-0.348;2024-02-04T13:25:46;2.25;;;0.60;;
72493;SDS011;60520;49.182;-0.348;2024-02-04T13:28:14;1.25;;;0.60;;
72493;SDS011;60520;49.182;-0.348;2024-02-04T13:30:41;4.22;;;0.60;;
72493;SDS011;60520;49.182;-0.348;2024-02-04T13:33:09;1.30;;;0.80;;
72493;SDS011;60520;49.182;-0.348;2024-02-04T13:35:36;3.13;;;0.60;;
72493;SDS011;60520;49.182;-0.348;2024-02-04T13:38:04;2.22;;;0.70;;
72493;SDS011;60520;49.182;-0.348;2024-02-04T13:40:33;1.83;;;0.57;;
72493;SDS011;60520;49.182;-0.348;2024-02-04T13:43:00;1.00;;;0.50;;
72493;SDS011;60520;49.182;-0.348;2024-02-04T13:45:27;1.42;;;0.50;;
72493;SDS011;60520;49.182;-0.348;2024-02-04T13:47:55;2.78;;;0.77;;
72493;SDS011;60520;49.182;-0.348;2024-02-04T13:50:23;2.17;;;0.70;;
72493;SDS011;60520;49.182;-0.348;2024-02-04T13:52:51;1.90;;;0.50;;
72493;SDS011;60520;49.182;-0.348;2024-02-04T13:55:18;2.17;;;0.70;;
72493;SDS011;60520;49.182;-0.348;2024-02-04T13:57:46;2.08;;;0.68;;
72493;SDS011;60520;49.182;-0.348;2024-02-04T14:00:13;2.60;;;0.70;;
72493;SDS011;60520;49.182;-0.348;2024-02-04T14:02:40;2.45;;;0.80;;
72493;SDS011;60520;49.182;-0.348;2024-02-04T14:05:07;1.10;;;0.50;;
72493;SDS011;60520;49.182;-0.348;2024-02-04T14:07:36;2.13;;;0.80;;
72493;SDS011;60520;49.182;-0.348;2024-02-04T14:10:04;1.42;;;0.60;;
72493;SDS011;60520;49.182;-0.348;2024-02-04T14:12:31;2.97;;;0.60;;
72493;SDS011;60520;49.182;-0.348;2024-02-04T14:14:58;1.15;;;0.60;;
72493;SDS011;60520;49.182;-0.348;2024-02-04T14:17:25;1.95;;;0.60;;
72493;SDS011;60520;49.182;-0.348;2024-02-04T14:19:52;2.40;;;0.70;;
72493;SDS011;60520;49.182;-0.348;2024-02-04T14:22:20;2.85;;;0.82;;
72493;SDS011;60520;49.182;-0.348;2024-02-04T14:24:48;2.42;;;0.70;;
72493;SDS011;60520;49.182;-0.348;2024-02-04T14:27:16;2.53;;;0.80;;
72493;SDS011;60520;49.182;-0.348;2024-02-04T14:29:43;2.05;;;0.70;;
72493;SDS011;60520;49.182;-0.348;2024-02-04T14:32:10;1.88;;;0.63;;
72493;SDS011;60520;49.182;-0.348;2024-02-04T14:34:37;3.95;;;0.88;;
72493;SDS011;60520;49.182;-0.348;2024-02-04T14:37:04;3.13;;;0.70;;